This is the latest recevied weather packets stored in our database for station/object DG4DAZ-6. If no packets are shown the sender has not sent any weather packets the latest 10 day(s).
| Time | Temp. | Humidity | Pressure | Rain* | Wind** | Luminosity | Snow |
|---|---|---|---|---|---|---|---|
| 1777383536 | 18.33° C | 37% | 1020.1 hPa | 0 mm | - | 683 W/m² | - |
| 1777382935 | 18.33° C | 35% | 1020.1 hPa | 0 mm | - | 697 W/m² | - |
| 1777382336 | 18.33° C | 35% | 1020.2 hPa | 0 mm | - | 676 W/m² | - |
| 1777381736 | 18.33° C | 35% | 1020 hPa | 0 mm | - | 685 W/m² | - |
| 1777381135 | 18.33° C | 35% | 1020 hPa | 0 mm | - | 700 W/m² | - |
| 1777380535 | 18.33° C | 34% | 1020.1 hPa | 0 mm | - | 309 W/m² | - |
| 1777379936 | 18.33° C | 36% | 1020.2 hPa | 0 mm | - | 758 W/m² | - |
| 1777379335 | 18.33° C | 38% | 1020.1 hPa | 0 mm | - | 768 W/m² | - |
| 1777378735 | 18.33° C | 39% | 1020.2 hPa | 0 mm | - | 772 W/m² | - |
| 1777378136 | 18.33° C | 39% | 1020.2 hPa | 0 mm | - | 783 W/m² | - |
| 1777377536 | 18.33° C | 39% | 1020.3 hPa | 0 mm | - | 791 W/m² | - |
| 1777376935 | 18.33° C | 40% | 1020.3 hPa | 0 mm | - | 802 W/m² | - |
| 1777376335 | 17.78° C | 40% | 1020.3 hPa | 0 mm | - | 799 W/m² | - |
| 1777375736 | 17.78° C | 36% | 1020.4 hPa | 0 mm | - | 808 W/m² | - |
| 1777375135 | 17.78° C | 40% | 1020.3 hPa | 0 mm | - | 706 W/m² | - |
| 1777374534 | 17.78° C | 39% | 1020.5 hPa | 0 mm | - | 779 W/m² | - |
| 1777373934 | 17.22° C | 43% | 1020.4 hPa | 0 mm | - | 319 W/m² | - |
| 1777373336 | 16.67° C | 42% | 1020.4 hPa | 0 mm | - | 555 W/m² | - |
| 1777372735 | 16.67° C | 41% | 1020.4 hPa | 0 mm | - | 634 W/m² | - |
| 1777372135 | 16.67° C | 44% | 1020.4 hPa | 0 mm | - | 827 W/m² | - |
| 1777371534 | 16.67° C | 43% | 1020.5 hPa | 0 mm | - | 626 W/m² | - |
| 1777370934 | 16.11° C | 44% | 1020.4 hPa | 0 mm | - | 826 W/m² | - |
| 1777370334 | 16.11° C | 42% | 1020.5 hPa | 0 mm | - | 751 W/m² | - |
| 1777369736 | 16.11° C | 46% | 1020.4 hPa | 0 mm | - | 753 W/m² | - |
| 1777369135 | 15.56° C | 48% | 1020.4 hPa | 0 mm | - | 747 W/m² | - |
* Rain latest hour (hover to see other rain measurements)
** Current wind speed in m/s (hover to see current wind gust speed)